sensor_id;sensor_type;location;lat;lon;timestamp;P1;durP1;ratioP1;P2;durP2;ratioP2
34505;SDS011;20748;42.632;23.198;2022-12-19T00:02:24;11.55;;;4.75;;
34505;SDS011;20748;42.632;23.198;2022-12-19T00:04:57;9.32;;;4.57;;
34505;SDS011;20748;42.632;23.198;2022-12-19T00:07:29;8.32;;;3.95;;
34505;SDS011;20748;42.632;23.198;2022-12-19T00:10:02;16.50;;;5.75;;
34505;SDS011;20748;42.632;23.198;2022-12-19T00:12:35;12.82;;;5.93;;
34505;SDS011;20748;42.632;23.198;2022-12-19T00:15:08;8.65;;;4.53;;
34505;SDS011;20748;42.632;23.198;2022-12-19T00:17:40;10.65;;;5.35;;
34505;SDS011;20748;42.632;23.198;2022-12-19T00:20:13;9.95;;;4.35;;
34505;SDS011;20748;42.632;23.198;2022-12-19T00:22:49;15.52;;;5.53;;
34505;SDS011;20748;42.632;23.198;2022-12-19T00:25:22;11.35;;;5.05;;
34505;SDS011;20748;42.632;23.198;2022-12-19T00:27:54;15.45;;;6.00;;
34505;SDS011;20748;42.632;23.198;2022-12-19T00:30:27;13.18;;;5.38;;
34505;SDS011;20748;42.632;23.198;2022-12-19T00:33:00;12.05;;;5.75;;
34505;SDS011;20748;42.632;23.198;2022-12-19T00:35:33;10.35;;;5.53;;
34505;SDS011;20748;42.632;23.198;2022-12-19T00:38:06;10.20;;;4.32;;
34505;SDS011;20748;42.632;23.198;2022-12-19T00:40:39;8.70;;;4.15;;
34505;SDS011;20748;42.632;23.198;2022-12-19T00:43:11;14.30;;;5.03;;
34505;SDS011;20748;42.632;23.198;2022-12-19T00:45:44;16.40;;;6.70;;
34505;SDS011;20748;42.632;23.198;2022-12-19T00:48:17;11.73;;;5.22;;
34505;SDS011;20748;42.632;23.198;2022-12-19T00:50:57;8.50;;;3.97;;
34505;SDS011;20748;42.632;23.198;2022-12-19T00:56:02;12.63;;;6.10;;
34505;SDS011;20748;42.632;23.198;2022-12-19T00:58:37;16.38;;;5.95;;
34505;SDS011;20748;42.632;23.198;2022-12-19T01:01:18;15.63;;;6.07;;
34505;SDS011;20748;42.632;23.198;2022-12-19T01:03:52;13.65;;;5.82;;
34505;SDS011;20748;42.632;23.198;2022-12-19T01:06:47;11.80;;;3.97;;
34505;SDS011;20748;42.632;23.198;2022-12-19T01:09:20;21.42;;;6.38;;
34505;SDS011;20748;42.632;23.198;2022-12-19T01:11:54;8.07;;;3.95;;
34505;SDS011;20748;42.632;23.198;2022-12-19T01:14:44;18.70;;;5.15;;
34505;SDS011;20748;42.632;23.198;2022-12-19T01:17:16;14.20;;;5.50;;
34505;SDS011;20748;42.632;23.198;2022-12-19T01:19:49;12.45;;;5.05;;
34505;SDS011;20748;42.632;23.198;2022-12-19T01:22:22;15.05;;;5.43;;
34505;SDS011;20748;42.632;23.198;2022-12-19T01:24:54;11.95;;;5.68;;
34505;SDS011;20748;42.632;23.198;2022-12-19T01:27:26;11.77;;;6.05;;
34505;SDS011;20748;42.632;23.198;2022-12-19T01:29:59;17.67;;;6.03;;
34505;SDS011;20748;42.632;23.198;2022-12-19T01:32:32;13.88;;;5.60;;
34505;SDS011;20748;42.632;23.198;2022-12-19T01:35:06;10.52;;;5.40;;
34505;SDS011;20748;42.632;23.198;2022-12-19T01:37:50;12.35;;;5.80;;
34505;SDS011;20748;42.632;23.198;2022-12-19T01:40:38;10.23;;;3.38;;
34505;SDS011;20748;42.632;23.198;2022-12-19T01:43:11;11.00;;;4.10;;
34505;SDS011;20748;42.632;23.198;2022-12-19T01:45:45;17.88;;;4.90;;
34505;SDS011;20748;42.632;23.198;2022-12-19T01:48:24;17.10;;;5.80;;
34505;SDS011;20748;42.632;23.198;2022-12-19T01:51:01;19.00;;;5.95;;
34505;SDS011;20748;42.632;23.198;2022-12-19T01:53:38;14.60;;;5.00;;
34505;SDS011;20748;42.632;23.198;2022-12-19T01:56:21;14.25;;;4.90;;
34505;SDS011;20748;42.632;23.198;2022-12-19T01:58:57;12.07;;;3.83;;
34505;SDS011;20748;42.632;23.198;2022-12-19T02:01:40;14.40;;;4.32;;
34505;SDS011;20748;42.632;23.198;2022-12-19T02:04:26;13.23;;;5.18;;
34505;SDS011;20748;42.632;23.198;2022-12-19T02:07:04;9.07;;;5.22;;
34505;SDS011;20748;42.632;23.198;2022-12-19T02:09:48;16.25;;;5.15;;
34505;SDS011;20748;42.632;23.198;2022-12-19T02:12:34;11.07;;;5.78;;
34505;SDS011;20748;42.632;23.198;2022-12-19T02:15:10;7.45;;;3.25;;
34505;SDS011;20748;42.632;23.198;2022-12-19T02:17:50;21.90;;;4.55;;
34505;SDS011;20748;42.632;23.198;2022-12-19T02:20:36;12.93;;;4.35;;
34505;SDS011;20748;42.632;23.198;2022-12-19T02:23:47;13.85;;;5.15;;
34505;SDS011;20748;42.632;23.198;2022-12-19T02:26:51;11.73;;;4.68;;
34505;SDS011;20748;42.632;23.198;2022-12-19T02:32:48;9.43;;;3.60;;
34505;SDS011;20748;42.632;23.198;2022-12-19T02:35:33;20.58;;;5.57;;
34505;SDS011;20748;42.632;23.198;2022-12-19T02:38:14;10.70;;;5.05;;
34505;SDS011;20748;42.632;23.198;2022-12-19T02:40:54;9.82;;;3.92;;
34505;SDS011;20748;42.632;23.198;2022-12-19T02:43:34;8.30;;;3.85;;
34505;SDS011;20748;42.632;23.198;2022-12-19T02:46:11;8.43;;;4.55;;
34505;SDS011;20748;42.632;23.198;2022-12-19T02:48:47;14.07;;;5.50;;
34505;SDS011;20748;42.632;23.198;2022-12-19T02:51:21;8.82;;;4.88;;
34505;SDS011;20748;42.632;23.198;2022-12-19T02:53:53;18.33;;;5.30;;
34505;SDS011;20748;42.632;23.198;2022-12-19T02:56:29;8.70;;;4.70;;
34505;SDS011;20748;42.632;23.198;2022-12-19T02:59:17;18.67;;;6.47;;
34505;SDS011;20748;42.632;23.198;2022-12-19T03:02:08;9.90;;;4.32;;
34505;SDS011;20748;42.632;23.198;2022-12-19T03:04:58;18.63;;;5.50;;
34505;SDS011;20748;42.632;23.198;2022-12-19T03:07:40;13.48;;;3.85;;
34505;SDS011;20748;42.632;23.198;2022-12-19T03:10:20;13.45;;;5.70;;
34505;SDS011;20748;42.632;23.198;2022-12-19T03:13:03;11.32;;;4.85;;
34505;SDS011;20748;42.632;23.198;2022-12-19T03:15:42;12.80;;;5.22;;
34505;SDS011;20748;42.632;23.198;2022-12-19T03:18:16;16.63;;;5.07;;
34505;SDS011;20748;42.632;23.198;2022-12-19T03:20:50;8.52;;;4.32;;
34505;SDS011;20748;42.632;23.198;2022-12-19T03:23:27;14.48;;;5.38;;
34505;SDS011;20748;42.632;23.198;2022-12-19T03:26:01;14.18;;;4.13;;
34505;SDS011;20748;42.632;23.198;2022-12-19T03:28:37;13.18;;;4.97;;
34505;SDS011;20748;42.632;23.198;2022-12-19T03:31:13;11.88;;;4.50;;
34505;SDS011;20748;42.632;23.198;2022-12-19T03:33:49;10.98;;;5.38;;
34505;SDS011;20748;42.632;23.198;2022-12-19T03:36:27;17.38;;;7.68;;
34505;SDS011;20748;42.632;23.198;2022-12-19T03:39:03;9.32;;;5.13;;
34505;SDS011;20748;42.632;23.198;2022-12-19T03:41:39;11.60;;;6.53;;
34505;SDS011;20748;42.632;23.198;2022-12-19T03:44:33;13.48;;;4.78;;
34505;SDS011;20748;42.632;23.198;2022-12-19T03:47:10;12.73;;;4.93;;
34505;SDS011;20748;42.632;23.198;2022-12-19T03:49:46;7.93;;;3.67;;
34505;SDS011;20748;42.632;23.198;2022-12-19T03:52:23;10.90;;;5.03;;
34505;SDS011;20748;42.632;23.198;2022-12-19T03:55:00;16.67;;;4.47;;
34505;SDS011;20748;42.632;23.198;2022-12-19T03:57:41;12.82;;;3.95;;
34505;SDS011;20748;42.632;23.198;2022-12-19T04:00:19;10.00;;;4.85;;
34505;SDS011;20748;42.632;23.198;2022-12-19T04:02:55;14.38;;;4.22;;
34505;SDS011;20748;42.632;23.198;2022-12-19T04:05:30;9.23;;;3.08;;
34505;SDS011;20748;42.632;23.198;2022-12-19T04:08:05;14.75;;;5.38;;
34505;SDS011;20748;42.632;23.198;2022-12-19T04:10:42;8.80;;;4.25;;
34505;SDS011;20748;42.632;23.198;2022-12-19T04:13:18;14.90;;;4.60;;
34505;SDS011;20748;42.632;23.198;2022-12-19T04:15:57;11.63;;;5.47;;
34505;SDS011;20748;42.632;23.198;2022-12-19T04:18:34;12.05;;;3.10;;
34505;SDS011;20748;42.632;23.198;2022-12-19T04:21:10;14.65;;;4.88;;
34505;SDS011;20748;42.632;23.198;2022-12-19T04:23:54;13.32;;;6.30;;
34505;SDS011;20748;42.632;23.198;2022-12-19T04:26:33;16.85;;;5.97;;
34505;SDS011;20748;42.632;23.198;2022-12-19T04:29:07;12.00;;;5.15;;
34505;SDS011;20748;42.632;23.198;2022-12-19T04:31:44;14.20;;;3.97;;
34505;SDS011;20748;42.632;23.198;2022-12-19T04:34:17;16.17;;;4.25;;
34505;SDS011;20748;42.632;23.198;2022-12-19T04:36:52;14.48;;;7.22;;
34505;SDS011;20748;42.632;23.198;2022-12-19T04:39:25;12.55;;;4.95;;
34505;SDS011;20748;42.632;23.198;2022-12-19T04:41:58;13.68;;;4.60;;
34505;SDS011;20748;42.632;23.198;2022-12-19T04:44:31;15.18;;;4.90;;
34505;SDS011;20748;42.632;23.198;2022-12-19T04:47:03;12.57;;;4.63;;
34505;SDS011;20748;42.632;23.198;2022-12-19T04:49:36;10.13;;;4.30;;
34505;SDS011;20748;42.632;23.198;2022-12-19T04:52:08;14.45;;;4.18;;
34505;SDS011;20748;42.632;23.198;2022-12-19T04:54:41;12.60;;;4.38;;
34505;SDS011;20748;42.632;23.198;2022-12-19T04:57:13;12.18;;;4.50;;
34505;SDS011;20748;42.632;23.198;2022-12-19T04:59:46;16.75;;;6.65;;
34505;SDS011;20748;42.632;23.198;2022-12-19T05:02:18;6.63;;;3.30;;
34505;SDS011;20748;42.632;23.198;2022-12-19T05:04:51;18.27;;;4.95;;
34505;SDS011;20748;42.632;23.198;2022-12-19T05:07:23;7.10;;;4.10;;
34505;SDS011;20748;42.632;23.198;2022-12-19T05:09:56;9.00;;;3.67;;
34505;SDS011;20748;42.632;23.198;2022-12-19T05:12:29;13.77;;;5.68;;
34505;SDS011;20748;42.632;23.198;2022-12-19T05:15:01;8.50;;;4.93;;
34505;SDS011;20748;42.632;23.198;2022-12-19T05:17:34;10.75;;;3.70;;
34505;SDS011;20748;42.632;23.198;2022-12-19T05:20:07;12.60;;;4.28;;
34505;SDS011;20748;42.632;23.198;2022-12-19T05:22:40;9.05;;;3.92;;
34505;SDS011;20748;42.632;23.198;2022-12-19T05:25:13;11.70;;;4.35;;
34505;SDS011;20748;42.632;23.198;2022-12-19T05:27:46;11.00;;;6.25;;
34505;SDS011;20748;42.632;23.198;2022-12-19T05:30:18;12.98;;;4.07;;
34505;SDS011;20748;42.632;23.198;2022-12-19T05:32:53;12.20;;;4.95;;
34505;SDS011;20748;42.632;23.198;2022-12-19T05:35:26;9.77;;;3.42;;
34505;SDS011;20748;42.632;23.198;2022-12-19T05:37:58;7.72;;;4.40;;
34505;SDS011;20748;42.632;23.198;2022-12-19T05:40:31;14.43;;;5.35;;
34505;SDS011;20748;42.632;23.198;2022-12-19T05:43:04;12.55;;;4.60;;
34505;SDS011;20748;42.632;23.198;2022-12-19T05:45:37;10.40;;;4.78;;
34505;SDS011;20748;42.632;23.198;2022-12-19T05:48:09;9.45;;;3.88;;
34505;SDS011;20748;42.632;23.198;2022-12-19T05:50:45;13.23;;;4.07;;
34505;SDS011;20748;42.632;23.198;2022-12-19T05:53:18;17.98;;;4.63;;
34505;SDS011;20748;42.632;23.198;2022-12-19T05:56:04;16.88;;;5.78;;
34505;SDS011;20748;42.632;23.198;2022-12-19T05:58:40;11.55;;;4.63;;
34505;SDS011;20748;42.632;23.198;2022-12-19T06:01:14;12.82;;;4.65;;
34505;SDS011;20748;42.632;23.198;2022-12-19T06:03:49;10.43;;;4.78;;
34505;SDS011;20748;42.632;23.198;2022-12-19T06:06:22;10.13;;;5.53;;
34505;SDS011;20748;42.632;23.198;2022-12-19T06:08:57;14.63;;;5.13;;
34505;SDS011;20748;42.632;23.198;2022-12-19T06:11:31;11.20;;;4.47;;
34505;SDS011;20748;42.632;23.198;2022-12-19T06:14:03;12.88;;;5.70;;
34505;SDS011;20748;42.632;23.198;2022-12-19T06:16:35;10.68;;;4.18;;
34505;SDS011;20748;42.632;23.198;2022-12-19T06:19:08;13.63;;;5.97;;
34505;SDS011;20748;42.632;23.198;2022-12-19T06:21:40;16.15;;;5.88;;
34505;SDS011;20748;42.632;23.198;2022-12-19T06:24:19;14.23;;;4.13;;
34505;SDS011;20748;42.632;23.198;2022-12-19T06:26:52;13.55;;;4.40;;
34505;SDS011;20748;42.632;23.198;2022-12-19T06:29:25;13.07;;;4.13;;
34505;SDS011;20748;42.632;23.198;2022-12-19T06:31:57;17.45;;;4.97;;
34505;SDS011;20748;42.632;23.198;2022-12-19T06:34:30;10.52;;;4.97;;
34505;SDS011;20748;42.632;23.198;2022-12-19T06:37:22;9.52;;;4.82;;
34505;SDS011;20748;42.632;23.198;2022-12-19T06:39:55;12.93;;;3.60;;
34505;SDS011;20748;42.632;23.198;2022-12-19T06:42:28;10.10;;;5.10;;
34505;SDS011;20748;42.632;23.198;2022-12-19T06:45:00;16.63;;;4.93;;
34505;SDS011;20748;42.632;23.198;2022-12-19T06:47:32;11.52;;;5.10;;
34505;SDS011;20748;42.632;23.198;2022-12-19T06:50:05;10.40;;;4.72;;
34505;SDS011;20748;42.632;23.198;2022-12-19T06:52:37;9.40;;;4.38;;
34505;SDS011;20748;42.632;23.198;2022-12-19T06:55:10;8.95;;;3.28;;
34505;SDS011;20748;42.632;23.198;2022-12-19T06:57:43;8.63;;;4.55;;
34505;SDS011;20748;42.632;23.198;2022-12-19T07:00:16;10.35;;;4.05;;
34505;SDS011;20748;42.632;23.198;2022-12-19T07:02:49;8.05;;;3.70;;
34505;SDS011;20748;42.632;23.198;2022-12-19T07:05:22;13.50;;;3.53;;
34505;SDS011;20748;42.632;23.198;2022-12-19T07:07:55;7.65;;;4.05;;
34505;SDS011;20748;42.632;23.198;2022-12-19T07:10:27;10.38;;;4.47;;
34505;SDS011;20748;42.632;23.198;2022-12-19T07:13:01;10.35;;;4.15;;
34505;SDS011;20748;42.632;23.198;2022-12-19T07:15:34;12.55;;;5.78;;
34505;SDS011;20748;42.632;23.198;2022-12-19T07:18:08;12.10;;;3.97;;
34505;SDS011;20748;42.632;23.198;2022-12-19T07:20:41;9.05;;;3.63;;
34505;SDS011;20748;42.632;23.198;2022-12-19T07:23:17;7.72;;;3.60;;
34505;SDS011;20748;42.632;23.198;2022-12-19T07:25:51;16.40;;;7.45;;
34505;SDS011;20748;42.632;23.198;2022-12-19T07:28:24;15.45;;;6.53;;
34505;SDS011;20748;42.632;23.198;2022-12-19T07:30:57;12.30;;;5.22;;
34505;SDS011;20748;42.632;23.198;2022-12-19T07:33:29;17.42;;;6.60;;
34505;SDS011;20748;42.632;23.198;2022-12-19T07:36:02;14.43;;;6.85;;
34505;SDS011;20748;42.632;23.198;2022-12-19T07:38:35;18.35;;;5.72;;
34505;SDS011;20748;42.632;23.198;2022-12-19T07:41:07;10.93;;;6.43;;
34505;SDS011;20748;42.632;23.198;2022-12-19T07:43:40;16.35;;;5.90;;
34505;SDS011;20748;42.632;23.198;2022-12-19T07:46:12;11.13;;;5.60;;
34505;SDS011;20748;42.632;23.198;2022-12-19T07:48:45;16.63;;;6.75;;
34505;SDS011;20748;42.632;23.198;2022-12-19T07:51:17;14.05;;;6.35;;
34505;SDS011;20748;42.632;23.198;2022-12-19T07:53:50;11.05;;;4.90;;
34505;SDS011;20748;42.632;23.198;2022-12-19T07:56:22;17.15;;;6.68;;
34505;SDS011;20748;42.632;23.198;2022-12-19T07:58:55;12.65;;;6.35;;
34505;SDS011;20748;42.632;23.198;2022-12-19T08:01:27;19.60;;;6.85;;
34505;SDS011;20748;42.632;23.198;2022-12-19T08:04:01;11.38;;;5.40;;
34505;SDS011;20748;42.632;23.198;2022-12-19T08:06:33;20.17;;;6.93;;
34505;SDS011;20748;42.632;23.198;2022-12-19T08:09:12;19.70;;;7.33;;
34505;SDS011;20748;42.632;23.198;2022-12-19T08:11:44;15.55;;;7.75;;
34505;SDS011;20748;42.632;23.198;2022-12-19T08:14:17;10.95;;;5.38;;
34505;SDS011;20748;42.632;23.198;2022-12-19T08:16:50;14.02;;;7.13;;
34505;SDS011;20748;42.632;23.198;2022-12-19T08:19:42;20.58;;;8.55;;
34505;SDS011;20748;42.632;23.198;2022-12-19T08:22:15;25.90;;;10.23;;
34505;SDS011;20748;42.632;23.198;2022-12-19T08:24:47;11.25;;;7.05;;
34505;SDS011;20748;42.632;23.198;2022-12-19T08:27:19;31.30;;;8.55;;
34505;SDS011;20748;42.632;23.198;2022-12-19T08:29:52;18.45;;;8.05;;
34505;SDS011;20748;42.632;23.198;2022-12-19T08:32:25;24.63;;;9.52;;
34505;SDS011;20748;42.632;23.198;2022-12-19T08:35:00;18.45;;;7.07;;
34505;SDS011;20748;42.632;23.198;2022-12-19T08:37:32;19.77;;;10.00;;
34505;SDS011;20748;42.632;23.198;2022-12-19T08:40:05;26.40;;;6.97;;
34505;SDS011;20748;42.632;23.198;2022-12-19T08:42:39;16.58;;;8.18;;
34505;SDS011;20748;42.632;23.198;2022-12-19T08:45:12;35.25;;;10.50;;
34505;SDS011;20748;42.632;23.198;2022-12-19T08:47:45;14.40;;;8.07;;
34505;SDS011;20748;42.632;23.198;2022-12-19T08:50:17;18.15;;;9.00;;
34505;SDS011;20748;42.632;23.198;2022-12-19T08:52:49;25.20;;;8.32;;
34505;SDS011;20748;42.632;23.198;2022-12-19T08:55:22;20.17;;;7.85;;
34505;SDS011;20748;42.632;23.198;2022-12-19T08:57:54;18.80;;;8.93;;
34505;SDS011;20748;42.632;23.198;2022-12-19T09:00:27;24.45;;;8.05;;
34505;SDS011;20748;42.632;23.198;2022-12-19T09:03:00;15.05;;;9.38;;
34505;SDS011;20748;42.632;23.198;2022-12-19T09:05:32;20.35;;;8.45;;
34505;SDS011;20748;42.632;23.198;2022-12-19T09:08:25;18.35;;;8.10;;
34505;SDS011;20748;42.632;23.198;2022-12-19T09:10:59;28.55;;;9.40;;
34505;SDS011;20748;42.632;23.198;2022-12-19T09:13:33;22.30;;;9.55;;
34505;SDS011;20748;42.632;23.198;2022-12-19T09:16:08;19.67;;;8.63;;
34505;SDS011;20748;42.632;23.198;2022-12-19T09:18:43;18.42;;;9.57;;
34505;SDS011;20748;42.632;23.198;2022-12-19T09:21:20;27.55;;;11.02;;
34505;SDS011;20748;42.632;23.198;2022-12-19T09:23:55;17.48;;;8.15;;
34505;SDS011;20748;42.632;23.198;2022-12-19T09:26:38;20.98;;;9.65;;
34505;SDS011;20748;42.632;23.198;2022-12-19T09:29:12;17.42;;;8.65;;
34505;SDS011;20748;42.632;23.198;2022-12-19T09:31:53;23.45;;;11.20;;
34505;SDS011;20748;42.632;23.198;2022-12-19T09:34:28;30.67;;;11.77;;
34505;SDS011;20748;42.632;23.198;2022-12-19T09:37:10;16.92;;;7.43;;
34505;SDS011;20748;42.632;23.198;2022-12-19T09:39:48;24.60;;;10.82;;
34505;SDS011;20748;42.632;23.198;2022-12-19T09:42:24;22.77;;;8.27;;
34505;SDS011;20748;42.632;23.198;2022-12-19T09:45:18;26.83;;;9.20;;
34505;SDS011;20748;42.632;23.198;2022-12-19T09:48:08;19.25;;;10.05;;
34505;SDS011;20748;42.632;23.198;2022-12-19T09:50:57;38.47;;;11.27;;
34505;SDS011;20748;42.632;23.198;2022-12-19T09:53:47;27.25;;;12.25;;
34505;SDS011;20748;42.632;23.198;2022-12-19T09:56:31;22.85;;;9.63;;
34505;SDS011;20748;42.632;23.198;2022-12-19T09:59:18;20.40;;;9.93;;
34505;SDS011;20748;42.632;23.198;2022-12-19T10:02:16;31.42;;;11.13;;
34505;SDS011;20748;42.632;23.198;2022-12-19T10:05:01;27.77;;;10.23;;
34505;SDS011;20748;42.632;23.198;2022-12-19T10:07:57;14.38;;;6.60;;
34505;SDS011;20748;42.632;23.198;2022-12-19T10:10:42;17.52;;;8.75;;
34505;SDS011;20748;42.632;23.198;2022-12-19T10:13:52;14.60;;;7.57;;
34505;SDS011;20748;42.632;23.198;2022-12-19T10:16:35;19.10;;;9.38;;
34505;SDS011;20748;42.632;23.198;2022-12-19T10:19:37;20.85;;;6.70;;
34505;SDS011;20748;42.632;23.198;2022-12-19T10:22:20;29.50;;;10.43;;
34505;SDS011;20748;42.632;23.198;2022-12-19T10:25:06;16.63;;;7.47;;
34505;SDS011;20748;42.632;23.198;2022-12-19T10:27:49;20.25;;;8.65;;
34505;SDS011;20748;42.632;23.198;2022-12-19T10:30:31;19.48;;;8.57;;
34505;SDS011;20748;42.632;23.198;2022-12-19T10:33:13;15.02;;;6.80;;
34505;SDS011;20748;42.632;23.198;2022-12-19T10:35:53;19.17;;;8.15;;
34505;SDS011;20748;42.632;23.198;2022-12-19T10:38:35;18.02;;;8.07;;
34505;SDS011;20748;42.632;23.198;2022-12-19T10:41:23;11.98;;;4.90;;
34505;SDS011;20748;42.632;23.198;2022-12-19T10:43:59;20.30;;;7.90;;
34505;SDS011;20748;42.632;23.198;2022-12-19T10:46:37;16.42;;;7.28;;
34505;SDS011;20748;42.632;23.198;2022-12-19T10:49:11;24.50;;;9.55;;
34505;SDS011;20748;42.632;23.198;2022-12-19T10:51:51;19.75;;;7.70;;
34505;SDS011;20748;42.632;23.198;2022-12-19T10:54:25;19.00;;;7.63;;
34505;SDS011;20748;42.632;23.198;2022-12-19T10:57:16;19.30;;;8.48;;
34505;SDS011;20748;42.632;23.198;2022-12-19T10:59:56;18.65;;;7.97;;
34505;SDS011;20748;42.632;23.198;2022-12-19T11:02:33;21.08;;;7.60;;
34505;SDS011;20748;42.632;23.198;2022-12-19T11:05:20;18.67;;;8.10;;
34505;SDS011;20748;42.632;23.198;2022-12-19T11:07:58;16.70;;;7.82;;
34505;SDS011;20748;42.632;23.198;2022-12-19T11:10:34;17.08;;;8.27;;
34505;SDS011;20748;42.632;23.198;2022-12-19T11:13:38;17.52;;;9.70;;
34505;SDS011;20748;42.632;23.198;2022-12-19T11:16:34;22.00;;;9.85;;
34505;SDS011;20748;42.632;23.198;2022-12-19T11:19:28;24.40;;;9.13;;
34505;SDS011;20748;42.632;23.198;2022-12-19T11:22:23;16.50;;;8.40;;
34505;SDS011;20748;42.632;23.198;2022-12-19T11:25:18;16.15;;;7.70;;
34505;SDS011;20748;42.632;23.198;2022-12-19T11:28:15;19.25;;;8.95;;
34505;SDS011;20748;42.632;23.198;2022-12-19T11:31:14;30.15;;;8.15;;
34505;SDS011;20748;42.632;23.198;2022-12-19T11:34:13;22.13;;;9.43;;
34505;SDS011;20748;42.632;23.198;2022-12-19T11:36:47;21.40;;;9.75;;
34505;SDS011;20748;42.632;23.198;2022-12-19T11:39:25;17.85;;;8.05;;
34505;SDS011;20748;42.632;23.198;2022-12-19T11:42:05;14.75;;;8.68;;
34505;SDS011;20748;42.632;23.198;2022-12-19T11:44:46;22.05;;;9.65;;
34505;SDS011;20748;42.632;23.198;2022-12-19T11:47:27;28.48;;;9.20;;
34505;SDS011;20748;42.632;23.198;2022-12-19T11:50:08;23.25;;;9.10;;
34505;SDS011;20748;42.632;23.198;2022-12-19T11:52:46;23.92;;;11.13;;
34505;SDS011;20748;42.632;23.198;2022-12-19T11:55:44;26.80;;;10.55;;
34505;SDS011;20748;42.632;23.198;2022-12-19T11:58:21;23.92;;;9.02;;
34505;SDS011;20748;42.632;23.198;2022-12-19T12:01:00;25.00;;;10.45;;
34505;SDS011;20748;42.632;23.198;2022-12-19T12:03:49;20.60;;;9.82;;
34505;SDS011;20748;42.632;23.198;2022-12-19T12:06:36;22.95;;;9.13;;
34505;SDS011;20748;42.632;23.198;2022-12-19T12:09:17;25.10;;;11.35;;
34505;SDS011;20748;42.632;23.198;2022-12-19T12:12:20;25.02;;;11.80;;
34505;SDS011;20748;42.632;23.198;2022-12-19T12:15:20;31.45;;;10.60;;
34505;SDS011;20748;42.632;23.198;2022-12-19T12:18:28;18.73;;;9.85;;
34505;SDS011;20748;42.632;23.198;2022-12-19T12:21:32;38.70;;;12.10;;
34505;SDS011;20748;42.632;23.198;2022-12-19T12:24:33;17.00;;;7.93;;
34505;SDS011;20748;42.632;23.198;2022-12-19T12:27:41;24.43;;;9.07;;
34505;SDS011;20748;42.632;23.198;2022-12-19T12:30:42;26.92;;;9.35;;
34505;SDS011;20748;42.632;23.198;2022-12-19T12:33:46;18.30;;;7.05;;
34505;SDS011;20748;42.632;23.198;2022-12-19T12:36:51;22.80;;;6.47;;
34505;SDS011;20748;42.632;23.198;2022-12-19T12:39:54;16.88;;;7.22;;
34505;SDS011;20748;42.632;23.198;2022-12-19T12:42:39;23.98;;;7.38;;
34505;SDS011;20748;42.632;23.198;2022-12-19T12:45:22;16.05;;;6.22;;
34505;SDS011;20748;42.632;23.198;2022-12-19T12:47:57;22.80;;;7.30;;
34505;SDS011;20748;42.632;23.198;2022-12-19T12:50:30;15.63;;;7.43;;
34505;SDS011;20748;42.632;23.198;2022-12-19T12:53:05;14.93;;;7.47;;
34505;SDS011;20748;42.632;23.198;2022-12-19T12:55:41;18.40;;;6.22;;
34505;SDS011;20748;42.632;23.198;2022-12-19T13:01:34;14.90;;;6.00;;
34505;SDS011;20748;42.632;23.198;2022-12-19T13:04:17;17.23;;;6.82;;
34505;SDS011;20748;42.632;23.198;2022-12-19T13:07:02;14.00;;;5.85;;
34505;SDS011;20748;42.632;23.198;2022-12-19T13:09:47;19.48;;;8.43;;
34505;SDS011;20748;42.632;23.198;2022-12-19T13:12:26;6.50;;;4.20;;
34505;SDS011;20748;42.632;23.198;2022-12-19T13:15:26;10.02;;;3.83;;
34505;SDS011;20748;42.632;23.198;2022-12-19T13:21:06;12.93;;;6.53;;
34505;SDS011;20748;42.632;23.198;2022-12-19T13:23:42;13.35;;;5.30;;
34505;SDS011;20748;42.632;23.198;2022-12-19T13:29:23;10.85;;;5.10;;
34505;SDS011;20748;42.632;23.198;2022-12-19T13:34:55;15.50;;;5.60;;
34505;SDS011;20748;42.632;23.198;2022-12-19T13:37:49;11.68;;;4.82;;
34505;SDS011;20748;42.632;23.198;2022-12-19T13:40:52;12.43;;;6.38;;
34505;SDS011;20748;42.632;23.198;2022-12-19T13:43:28;14.20;;;6.55;;
34505;SDS011;20748;42.632;23.198;2022-12-19T13:46:21;17.67;;;5.63;;
34505;SDS011;20748;42.632;23.198;2022-12-19T13:48:59;7.35;;;3.75;;
34505;SDS011;20748;42.632;23.198;2022-12-19T13:51:45;12.75;;;5.60;;
34505;SDS011;20748;42.632;23.198;2022-12-19T13:54:22;7.22;;;3.63;;
34505;SDS011;20748;42.632;23.198;2022-12-19T13:56:56;10.77;;;6.13;;
34505;SDS011;20748;42.632;23.198;2022-12-19T13:59:32;10.57;;;4.82;;
34505;SDS011;20748;42.632;23.198;2022-12-19T14:02:12;10.57;;;4.75;;
34505;SDS011;20748;42.632;23.198;2022-12-19T14:04:48;10.63;;;5.50;;
34505;SDS011;20748;42.632;23.198;2022-12-19T14:07:26;12.10;;;4.95;;
34505;SDS011;20748;42.632;23.198;2022-12-19T14:10:15;15.20;;;6.50;;
34505;SDS011;20748;42.632;23.198;2022-12-19T14:13:12;10.32;;;5.82;;
34505;SDS011;20748;42.632;23.198;2022-12-19T14:16:26;16.00;;;6.63;;
34505;SDS011;20748;42.632;23.198;2022-12-19T14:19:16;8.23;;;4.47;;
34505;SDS011;20748;42.632;23.198;2022-12-19T14:21:50;9.18;;;4.85;;
34505;SDS011;20748;42.632;23.198;2022-12-19T14:24:51;14.13;;;6.35;;
34505;SDS011;20748;42.632;23.198;2022-12-19T14:27:26;14.02;;;7.13;;
34505;SDS011;20748;42.632;23.198;2022-12-19T14:30:22;13.60;;;4.97;;
34505;SDS011;20748;42.632;23.198;2022-12-19T14:33:04;11.50;;;5.68;;
34505;SDS011;20748;42.632;23.198;2022-12-19T14:36:00;20.58;;;6.35;;
34505;SDS011;20748;42.632;23.198;2022-12-19T14:38:44;10.13;;;4.57;;
34505;SDS011;20748;42.632;23.198;2022-12-19T14:41:38;11.55;;;3.83;;
34505;SDS011;20748;42.632;23.198;2022-12-19T14:44:43;12.02;;;4.63;;
34505;SDS011;20748;42.632;23.198;2022-12-19T14:47:39;14.40;;;5.57;;
34505;SDS011;20748;42.632;23.198;2022-12-19T14:50:33;11.73;;;4.80;;
34505;SDS011;20748;42.632;23.198;2022-12-19T14:53:26;10.90;;;5.65;;
34505;SDS011;20748;42.632;23.198;2022-12-19T14:56:18;11.38;;;5.15;;
34505;SDS011;20748;42.632;23.198;2022-12-19T14:59:17;9.77;;;4.95;;
34505;SDS011;20748;42.632;23.198;2022-12-19T15:02:00;11.90;;;5.15;;
34505;SDS011;20748;42.632;23.198;2022-12-19T15:04:37;11.55;;;6.63;;
34505;SDS011;20748;42.632;23.198;2022-12-19T15:07:22;12.88;;;6.18;;
34505;SDS011;20748;42.632;23.198;2022-12-19T15:09:57;11.23;;;5.50;;
34505;SDS011;20748;42.632;23.198;2022-12-19T15:12:54;18.05;;;8.25;;
34505;SDS011;20748;42.632;23.198;2022-12-19T15:16:20;33.47;;;13.63;;
34505;SDS011;20748;42.632;23.198;2022-12-19T15:18:55;13.35;;;5.55;;
34505;SDS011;20748;42.632;23.198;2022-12-19T15:21:29;12.18;;;4.70;;
34505;SDS011;20748;42.632;23.198;2022-12-19T15:24:02;13.50;;;5.18;;
34505;SDS011;20748;42.632;23.198;2022-12-19T15:26:35;56.47;;;19.95;;
34505;SDS011;20748;42.632;23.198;2022-12-19T15:29:18;18.67;;;8.15;;
34505;SDS011;20748;42.632;23.198;2022-12-19T15:31:53;10.30;;;4.53;;
34505;SDS011;20748;42.632;23.198;2022-12-19T15:34:26;13.63;;;5.55;;
34505;SDS011;20748;42.632;23.198;2022-12-19T15:37:09;17.23;;;7.30;;
34505;SDS011;20748;42.632;23.198;2022-12-19T15:39:43;18.48;;;6.57;;
34505;SDS011;20748;42.632;23.198;2022-12-19T15:42:17;25.25;;;5.60;;
34505;SDS011;20748;42.632;23.198;2022-12-19T15:44:52;11.48;;;5.05;;
34505;SDS011;20748;42.632;23.198;2022-12-19T15:47:28;18.55;;;7.55;;
34505;SDS011;20748;42.632;23.198;2022-12-19T15:50:13;15.80;;;6.78;;
34505;SDS011;20748;42.632;23.198;2022-12-19T15:52:50;11.48;;;4.45;;
34505;SDS011;20748;42.632;23.198;2022-12-19T15:55:26;9.75;;;4.22;;